Time;durP1;ratioP1;P1;durP2;ratioP2;P2;SDS_P1;SDS_P2;PMS_P1;PMS_P2;Temp;Humidity;BMP_temperature;BMP_pressure;BME280_temperature;BME280_humidity;BME280_pressure;Samples;Min_cycle;Max_cycle;Signal;HPM_P1;HPM_P2
2022/10/12 00:00:51;;;;;;;14.18;7.82;;;;;;;4.60;100.00;102515.97;5011551;28;20455;-73
2022/10/12 00:03:18;;;;;;;14.20;7.05;;;;;;;4.60;100.00;102512.50;5011988;28;20014;-73
2022/10/12 00:05:43;;;;;;;11.55;7.10;;;;;;;4.58;100.00;102516.78;5011136;28;20504;-72
2022/10/12 00:08:09;;;;;;;12.27;7.50;;;;;;;4.52;100.00;102508.84;5011202;28;20096;-73
2022/10/12 00:10:41;;;;;;;15.73;7.90;;;;;;;4.54;100.00;102520.09;5013154;28;20032;-72
2022/10/12 00:13:07;;;;;;;15.35;7.43;;;;;;;4.46;100.00;102506.97;5014470;28;20108;-73
2022/10/12 00:15:38;;;;;;;16.48;7.50;;;;;;;4.48;100.00;102507.91;5015309;28;20474;-72
2022/10/12 00:18:04;;;;;;;18.40;7.55;;;;;;;4.44;100.00;102504.31;5015693;28;20021;-72
2022/10/12 00:20:29;;;;;;;19.10;8.60;;;;;;;4.41;100.00;102513.69;5013401;28;20378;-73
2022/10/12 00:22:54;;;;;;;15.55;8.55;;;;;;;4.30;100.00;102502.19;5015332;28;20069;-72
2022/10/12 00:25:20;;;;;;;25.98;9.10;;;;;;;4.36;100.00;102513.56;5015040;28;20021;-72
2022/10/12 00:27:45;;;;;;;12.98;7.90;;;;;;;4.35;100.00;102519.56;5014760;28;20037;-72
2022/10/12 00:30:11;;;;;;;19.15;8.40;;;;;;;4.34;100.00;102522.97;5014423;28;20025;-72
2022/10/12 00:32:36;;;;;;;17.35;9.07;;;;;;;4.29;100.00;102503.91;5014059;28;20053;-72
2022/10/12 00:35:02;;;;;;;12.20;8.25;;;;;;;4.30;100.00;102507.34;5014695;28;20508;-72
2022/10/12 00:37:27;;;;;;;17.60;9.77;;;;;;;4.31;100.00;102514.25;5013822;28;20385;-73
2022/10/12 00:39:53;;;;;;;17.13;8.73;;;;;;;4.29;100.00;102511.66;5014390;28;20114;-72
2022/10/12 00:42:19;;;;;;;16.75;8.70;;;;;;;4.29;100.00;102505.63;5014228;28;20021;-73
2022/10/12 00:44:47;;;;;;;16.00;8.98;;;;;;;4.30;100.00;102518.56;5015118;28;20030;-73
2022/10/12 00:47:19;;;;;;;20.83;10.02;;;;;;;4.33;100.00;102513.47;5014288;28;20026;-73
2022/10/12 00:50:12;;;;;;;15.40;9.00;;;;;;;4.37;100.00;102511.84;5013382;28;20089;-72
2022/10/12 00:52:59;;;;;;;21.40;10.23;;;;;;;4.42;100.00;102523.22;4991232;28;20033;-73
2022/10/12 00:55:28;;;;;;;17.67;9.70;;;;;;;4.34;100.00;102504.88;5013806;28;20029;-73
2022/10/12 00:57:54;;;;;;;19.20;9.70;;;;;;;4.46;100.00;102520.75;5015025;28;20108;-72
2022/10/12 01:00:20;;;;;;;15.52;9.93;;;;;;;4.50;100.00;102523.41;5014916;28;20025;-72
2022/10/12 01:02:49;;;;;;;16.08;8.93;;;;;;;4.53;100.00;102519.22;5014265;28;20038;-72
2022/10/12 01:05:15;;;;;;;19.40;9.50;;;;;;;4.55;100.00;102514.09;5014907;28;20369;-72
2022/10/12 01:07:40;;;;;;;18.92;9.52;;;;;;;4.61;100.00;102515.16;5013232;28;20116;-72
2022/10/12 01:10:06;;;;;;;14.85;8.90;;;;;;;4.65;100.00;102522.16;5013234;28;20117;-72
2022/10/12 01:12:33;;;;;;;14.63;9.13;;;;;;;4.67;100.00;102512.72;5003509;28;20057;-72
2022/10/12 01:14:59;;;;;;;16.98;9.82;;;;;;;4.70;100.00;102507.63;5009894;28;20030;-73
2022/10/12 01:17:56;;;;;;;16.25;8.70;;;;;;;4.72;100.00;102499.94;5012592;28;20032;-73
2022/10/12 01:20:43;;;;;;;17.20;8.85;;;;;;;4.72;100.00;102497.34;5007608;28;20045;-73
2022/10/12 01:23:17;;;;;;;14.88;8.90;;;;;;;4.72;100.00;102491.31;5014115;28;20034;-72
2022/10/12 01:26:12;;;;;;;19.08;9.98;;;;;;;4.70;100.00;102488.66;5013405;28;20091;-72
2022/10/12 01:28:55;;;;;;;17.85;9.98;;;;;;;4.68;100.00;102480.03;5013969;28;20446;-72
2022/10/12 01:31:39;;;;;;;14.63;9.02;;;;;;;4.64;100.00;102478.16;5013775;28;20026;-72
2022/10/12 01:34:33;;;;;;;20.52;9.25;;;;;;;4.61;100.00;102480.66;5014444;28;20135;-72
2022/10/12 01:37:14;;;;;;;16.20;9.30;;;;;;;4.57;100.00;102482.28;5013077;28;20036;-72
2022/10/12 01:39:50;;;;;;;17.33;9.55;;;;;;;4.55;100.00;102488.28;5000295;28;20350;-72
2022/10/12 01:42:22;;;;;;;15.63;9.55;;;;;;;4.52;100.00;102480.44;5013815;28;20120;-72
2022/10/12 01:44:47;;;;;;;21.10;10.57;;;;;;;4.45;100.00;102466.47;5013550;28;20025;-72
2022/10/12 01:47:13;;;;;;;21.98;10.02;;;;;;;4.36;100.00;102446.44;5014205;28;20038;-72
2022/10/12 01:49:38;;;;;;;19.30;10.55;;;;;;;4.43;100.00;102462.97;5010831;28;20551;-72
2022/10/12 01:52:27;;;;;;;20.00;10.55;;;;;;;4.47;100.00;102463.09;5013090;28;20056;-72
2022/10/12 01:55:07;;;;;;;17.15;10.05;;;;;;;4.45;100.00;102462.19;5014093;28;20014;-73
2022/10/12 01:57:38;;;;;;;19.75;10.48;;;;;;;4.44;100.00;102465.59;5012794;28;20424;-73
2022/10/12 02:00:06;;;;;;;21.10;10.50;;;;;;;4.44;100.00;102463.00;4999880;28;20461;-72
2022/10/12 02:02:41;;;;;;;20.00;10.68;;;;;;;4.45;100.00;102469.06;5013545;28;20033;-72
2022/10/12 02:05:22;;;;;;;20.77;10.75;;;;;;;4.45;100.00;102463.91;5012927;28;20508;-73
2022/10/12 02:08:05;;;;;;;18.92;10.80;;;;;;;4.42;100.00;102458.66;5013894;28;20034;-72
2022/10/12 02:10:39;;;;;;;20.67;10.45;;;;;;;4.40;100.00;102452.56;5011763;28;20034;-72
2022/10/12 02:13:08;;;;;;;18.67;12.13;;;;;;;4.39;100.00;102450.81;5012861;28;20393;-72
2022/10/12 02:15:36;;;;;;;20.52;10.43;;;;;;;4.27;100.00;102433.25;5009314;28;20037;-73
2022/10/12 02:18:04;;;;;;;16.95;10.60;;;;;;;4.40;100.00;102452.56;5013611;28;20033;-72
2022/10/12 02:20:31;;;;;;;18.55;10.95;;;;;;;4.39;100.00;102450.81;5011410;28;20032;-72
2022/10/12 02:22:57;;;;;;;20.25;11.43;;;;;;;4.32;100.00;102441.16;5012365;28;20481;-72
2022/10/12 02:25:25;;;;;;;20.60;11.10;;;;;;;4.36;100.00;102451.59;5012692;28;20064;-72
2022/10/12 02:28:01;;;;;;;17.58;11.25;;;;;;;4.35;100.00;102449.84;5012815;28;20026;-72
2022/10/12 02:30:27;;;;;;;17.58;10.60;;;;;;;4.31;100.00;102445.41;5011443;28;20022;-72
2022/10/12 02:33:07;;;;;;;15.68;10.65;;;;;;;4.29;100.00;102441.06;5010521;28;20053;-73
2022/10/12 02:35:59;;;;;;;15.73;10.35;;;;;;;4.18;100.00;102436.44;5012525;28;20053;-72
2022/10/12 02:38:31;;;;;;;19.65;11.02;;;;;;;4.19;100.00;102443.38;5012367;28;20026;-72
2022/10/12 02:41:18;;;;;;;18.50;11.52;;;;;;;4.07;100.00;102434.41;5011947;28;20472;-72
2022/10/12 02:43:53;;;;;;;22.83;11.70;;;;;;;4.07;100.00;102439.56;5012765;28;20030;-72
2022/10/12 02:46:21;;;;;;;21.33;11.95;;;;;;;4.06;100.00;102440.41;5011532;28;20037;-72
2022/10/12 02:48:49;;;;;;;21.08;12.18;;;;;;;3.99;100.00;102439.38;5011108;28;20045;-72
2022/10/12 02:51:16;;;;;;;20.52;11.82;;;;;;;3.93;100.00;102432.31;5011959;28;20406;-72
2022/10/12 02:53:43;;;;;;;18.80;11.27;;;;;;;3.93;100.00;102434.03;5012322;28;20041;-72
2022/10/12 02:56:11;;;;;;;20.50;12.35;;;;;;;3.89;100.00;102434.75;5012411;28;20034;-72
2022/10/12 02:58:36;;;;;;;19.00;12.43;;;;;;;3.85;100.00;102433.78;5012096;28;20026;-72
2022/10/12 03:01:02;;;;;;;18.90;12.00;;;;;;;3.79;100.00;102431.00;5012144;28;20532;-72
2022/10/12 03:03:27;;;;;;;18.15;11.75;;;;;;;3.75;100.00;102429.19;5011933;28;20022;-73
2022/10/12 03:05:53;;;;;;;19.60;11.55;;;;;;;3.73;100.00;102425.69;5010440;28;20034;-72
2022/10/12 03:08:19;;;;;;;21.02;11.85;;;;;;;3.67;100.00;102423.78;5011461;28;20022;-72
2022/10/12 03:10:44;;;;;;;19.52;11.40;;;;;;;3.66;100.00;102429.78;5009001;28;20095;-72
2022/10/12 03:13:09;;;;;;;18.95;12.13;;;;;;;3.60;100.00;102421.00;5012382;28;20030;-72
2022/10/12 03:15:34;;;;;;;18.35;11.90;;;;;;;3.57;100.00;102421.78;5011472;28;20010;-72
2022/10/12 03:18:00;;;;;;;23.55;11.82;;;;;;;3.58;100.00;102427.81;5011968;28;20475;-72
2022/10/12 03:20:25;;;;;;;20.15;12.40;;;;;;;3.51;100.00;102414.72;5010225;28;20040;-72
2022/10/12 03:23:02;;;;;;;19.48;11.63;;;;;;;3.49;100.00;102416.34;5010951;28;20032;-72
2022/10/12 03:25:28;;;;;;;24.83;12.70;;;;;;;3.48;100.00;102422.34;5011545;28;20084;-72
2022/10/12 03:27:53;;;;;;;19.48;12.18;;;;;;;3.44;100.00;102428.25;5012267;28;20037;-72
2022/10/12 03:30:18;;;;;;;24.88;12.50;;;;;;;3.42;100.00;102419.59;5011303;28;20033;-72
2022/10/12 03:32:43;;;;;;;22.17;13.73;;;;;;;3.40;100.00;102435.81;5009005;28;20470;-72
2022/10/12 03:35:09;;;;;;;23.75;14.50;;;;;;;3.31;100.00;102415.81;5012435;28;20042;-72
2022/10/12 03:37:34;;;;;;;19.15;13.48;;;;;;;3.34;100.00;102423.63;5010882;28;20022;-72
2022/10/12 03:39:59;;;;;;;22.77;14.52;;;;;;;3.24;100.00;102412.16;5012325;28;20462;-72
2022/10/12 03:42:25;;;;;;;22.63;13.88;;;;;;;3.29;100.00;102423.47;5010473;28;20049;-72
2022/10/12 03:44:50;;;;;;;24.13;14.48;;;;;;;3.27;100.00;102424.28;5010305;28;20363;-72
2022/10/12 03:47:15;;;;;;;23.05;14.70;;;;;;;3.22;100.00;102423.25;5012110;28;20045;-72
2022/10/12 03:49:41;;;;;;;23.45;14.30;;;;;;;3.23;100.00;102427.56;5011314;28;20508;-72
2022/10/12 03:52:06;;;;;;;25.35;15.02;;;;;;;3.22;100.00;102420.66;5010875;28;20034;-72
2022/10/12 03:54:31;;;;;;;23.50;14.23;;;;;;;3.14;100.00;102406.66;5011391;28;20022;-72
2022/10/12 03:56:56;;;;;;;26.00;14.73;;;;;;;3.21;100.00;102408.63;5011995;28;20524;-72
2022/10/12 03:59:22;;;;;;;24.40;14.77;;;;;;;3.09;100.00;102392.75;5010618;28;20030;-72
2022/10/12 04:01:47;;;;;;;22.77;14.43;;;;;;;3.15;100.00;102408.41;5011899;28;20029;-72
2022/10/12 04:04:13;;;;;;;25.25;13.98;;;;;;;3.21;100.00;102406.03;5011432;28;20109;-72
2022/10/12 04:06:38;;;;;;;19.73;14.55;;;;;;;3.22;100.00;102413.81;5011233;28;20040;-72
2022/10/12 04:09:03;;;;;;;19.73;13.95;;;;;;;3.25;100.00;102403.59;5011906;28;20049;-72
2022/10/12 04:11:29;;;;;;;27.70;14.77;;;;;;;3.27;100.00;102404.53;5009388;28;20074;-72
2022/10/12 04:13:54;;;;;;;23.02;14.50;;;;;;;3.27;100.00;102403.66;5011938;28;20037;-72
2022/10/12 04:16:19;;;;;;;21.33;15.00;;;;;;;3.25;100.00;102405.31;5010539;28;20030;-73
2022/10/12 04:18:45;;;;;;;27.00;14.85;;;;;;;3.25;100.00;102407.88;5011360;28;20392;-72
2022/10/12 04:21:13;;;;;;;26.52;14.90;;;;;;;3.20;100.00;102397.41;5003417;28;20022;-73
2022/10/12 04:23:39;;;;;;;22.23;14.93;;;;;;;3.25;100.00;102408.75;5003434;28;20026;-72
2022/10/12 04:26:06;;;;;;;26.13;15.63;;;;;;;3.23;100.00;102401.78;5010593;28;20033;-72
2022/10/12 04:28:31;;;;;;;27.52;15.35;;;;;;;3.25;100.00;102405.31;5011087;28;20030;-72
2022/10/12 04:30:56;;;;;;;23.67;15.25;;;;;;;3.24;100.00;102409.59;5011766;28;20069;-72
2022/10/12 04:33:21;;;;;;;25.25;15.25;;;;;;;3.24;100.00;102408.72;5008887;28;20062;-72
2022/10/12 04:35:47;;;;;;;26.58;15.07;;;;;;;3.24;100.00;102408.72;5010569;28;20030;-72
2022/10/12 04:38:12;;;;;;;21.30;14.27;;;;;;;3.21;100.00;102395.72;5011640;28;20030;-72
2022/10/12 04:40:38;;;;;;;22.33;15.35;;;;;;;3.23;100.00;102401.78;5009612;28;20401;-72
2022/10/12 04:43:03;;;;;;;28.38;15.00;;;;;;;3.20;100.00;102397.41;5010273;28;20058;-72
2022/10/12 04:45:28;;;;;;;21.85;14.98;;;;;;;3.21;100.00;102401.75;5011095;28;20366;-72
2022/10/12 04:47:54;;;;;;;22.48;14.88;;;;;;;3.27;100.00;102413.97;5010930;28;20025;-72
2022/10/12 04:50:19;;;;;;;27.23;14.73;;;;;;;3.23;100.00;102404.38;5011062;28;20049;-72
2022/10/12 04:52:44;;;;;;;24.08;14.32;;;;;;;3.24;100.00;102408.72;5010370;28;20022;-72
2022/10/12 04:55:10;;;;;;;25.48;14.20;;;;;;;3.18;100.00;102403.38;5010771;28;20056;-72
2022/10/12 04:57:35;;;;;;;23.77;13.82;;;;;;;3.11;100.00;102385.97;5014563;28;20381;-72
2022/10/12 05:00:00;;;;;;;23.55;15.20;;;;;;;3.25;100.00;102418.19;5014502;28;20040;-72
2022/10/12 05:02:26;;;;;;;22.42;14.10;;;;;;;3.21;100.00;102411.19;5013200;28;20509;-72
2022/10/12 05:04:51;;;;;;;22.30;14.90;;;;;;;3.14;100.00;102412.69;5014899;28;20057;-72
2022/10/12 05:07:16;;;;;;;19.80;14.43;;;;;;;3.13;100.00;102412.63;5013915;28;20032;-72
2022/10/12 05:09:42;;;;;;;23.23;14.02;;;;;;;3.10;100.00;102409.97;5010581;28;20105;-72
2022/10/12 05:12:08;;;;;;;24.60;14.45;;;;;;;3.03;100.00;102409.75;5014296;28;20030;-72
2022/10/12 05:14:33;;;;;;;22.42;13.68;;;;;;;2.97;100.00;102404.41;5012841;28;20525;-72
2022/10/12 05:16:58;;;;;;;24.80;14.60;;;;;;;2.98;100.00;102405.31;5014663;28;20030;-72
2022/10/12 05:19:23;;;;;;;23.20;14.15;;;;;;;2.96;100.00;102400.09;5014177;28;20393;-72
2022/10/12 05:21:49;;;;;;;23.35;14.65;;;;;;;2.89;100.00;102392.13;5012141;28;20079;-72
2022/10/12 05:24:14;;;;;;;23.77;14.25;;;;;;;2.88;100.00;102387.75;5013430;28;20109;-72
2022/10/12 05:26:39;;;;;;;20.75;14.15;;;;;;;2.85;100.00;102393.72;5013760;28;20442;-72
2022/10/12 05:29:05;;;;;;;28.25;14.20;;;;;;;2.77;100.00;102377.97;5014149;28;20049;-72
2022/10/12 05:31:30;;;;;;;20.98;14.48;;;;;;;2.85;100.00;102391.13;5013655;28;20049;-72
2022/10/12 05:33:55;;;;;;;24.98;15.05;;;;;;;2.84;100.00;102389.38;5014441;28;20108;-72
2022/10/12 05:36:21;;;;;;;21.05;14.30;;;;;;;2.82;100.00;102393.59;5012532;28;20034;-72
2022/10/12 05:38:46;;;;;;;21.95;14.23;;;;;;;2.81;100.00;102386.69;5013507;28;20030;-72
2022/10/12 05:41:11;;;;;;;21.58;14.77;;;;;;;2.81;100.00;102394.41;5012996;28;20022;-72
2022/10/12 05:43:37;;;;;;;21.88;14.15;;;;;;;2.83;100.00;102390.19;5012507;28;20868;-72
2022/10/12 05:46:02;;;;;;;27.73;14.20;;;;;;;2.82;100.00;102388.47;5014297;28;20029;-72
2022/10/12 05:48:27;;;;;;;24.58;15.15;;;;;;;2.86;100.00;102387.72;5013634;28;20026;-72
2022/10/12 05:50:53;;;;;;;19.25;14.32;;;;;;;2.90;100.00;102380.97;5012933;28;20049;-72
2022/10/12 05:53:21;;;;;;;22.60;14.10;;;;;;;2.90;100.00;102380.97;5012966;28;20038;-72
2022/10/12 05:55:53;;;;;;;27.02;14.57;;;;;;;2.90;100.00;102373.25;5013804;28;20129;-72
2022/10/12 05:58:19;;;;;;;25.23;14.87;;;;;;;2.97;100.00;102386.38;5013273;28;20029;-72
2022/10/12 06:00:44;;;;;;;23.30;15.18;;;;;;;2.97;100.00;102383.78;5016406;28;20382;-72
2022/10/12 06:03:09;;;;;;;19.95;14.48;;;;;;;3.01;100.00;102382.22;5013888;28;20053;-72
2022/10/12 06:05:35;;;;;;;23.17;13.68;;;;;;;3.10;100.00;102384.19;5011616;28;20072;-72
2022/10/12 06:08:00;;;;;;;24.77;14.13;;;;;;;3.10;100.00;102374.75;5013534;28;20393;-72
2022/10/12 06:10:25;;;;;;;26.58;15.07;;;;;;;3.17;100.00;102397.34;5008833;28;20041;-72
2022/10/12 06:12:53;;;;;;;26.55;15.10;;;;;;;3.17;100.00;102387.03;5012865;28;20022;-72
2022/10/12 06:15:18;;;;;;;28.98;14.65;;;;;;;3.25;100.00;102377.81;5006019;28;20045;-73
2022/10/12 06:17:44;;;;;;;27.45;14.98;;;;;;;3.28;100.00;102384.78;5025367;28;20489;-72
2022/10/12 06:20:09;;;;;;;26.92;15.20;;;;;;;3.26;100.00;102376.09;5013207;28;20496;-72
2022/10/12 06:22:35;;;;;;;22.70;14.10;;;;;;;3.34;100.00;102378.94;5012751;28;20034;-73
2022/10/12 06:25:00;;;;;;;26.75;15.15;;;;;;;3.37;100.00;102384.16;5012041;28;20057;-71
2022/10/12 06:27:25;;;;;;;28.73;15.68;;;;;;;3.38;100.00;102381.66;5012399;28;20033;-72
2022/10/12 06:29:50;;;;;;;26.13;15.88;;;;;;;3.43;100.00;102374.03;5013442;28;20112;-72
2022/10/12 06:32:16;;;;;;;24.20;15.90;;;;;;;3.54;100.00;102384.72;5012897;28;20045;-72
2022/10/12 06:34:41;;;;;;;28.13;15.27;;;;;;;3.63;100.00;102382.38;5012654;28;20470;-72
2022/10/12 06:37:06;;;;;;;27.85;15.43;;;;;;;3.69;100.00;102375.69;5013399;28;20018;-71
2022/10/12 06:39:31;;;;;;;27.42;15.50;;;;;;;3.75;100.00;102372.44;5011923;28;20132;-71
2022/10/12 06:41:57;;;;;;;27.50;15.93;;;;;;;3.87;100.00;102371.91;5011985;28;20025;-72
2022/10/12 06:44:22;;;;;;;26.25;15.25;;;;;;;3.93;100.00;102370.38;5022407;28;20373;-71
2022/10/12 06:46:49;;;;;;;31.02;15.93;;;;;;;4.00;100.00;102363.69;5009164;28;20047;-72
2022/10/12 06:49:17;;;;;;;32.35;16.23;;;;;;;4.13;100.00;102370.94;5006275;28;20115;-72
2022/10/12 06:51:42;;;;;;;29.75;16.58;;;;;;;4.21;100.00;102378.88;5012470;28;20034;-72
2022/10/12 06:54:07;;;;;;;39.05;16.65;;;;;;;4.21;100.00;102373.72;5008378;28;20041;-71
2022/10/12 06:56:33;;;;;;;36.83;17.42;;;;;;;4.22;100.00;102372.91;5011782;28;20041;-72
2022/10/12 06:58:59;;;;;;;27.33;15.95;;;;;;;4.22;100.00;102378.06;5010712;28;20056;-72
2022/10/12 07:01:24;;;;;;;27.42;15.82;;;;;;;4.16;100.00;102371.03;5011314;28;20022;-72
2022/10/12 07:03:49;;;;;;;31.73;16.13;;;;;;;4.16;100.00;102385.63;5012521;28;20390;-72
2022/10/12 07:06:15;;;;;;;25.73;15.77;;;;;;;4.15;100.00;102379.59;5011199;28;20026;-71
2022/10/12 07:08:41;;;;;;;28.70;16.05;;;;;;;4.15;100.00;102378.72;5004689;28;20109;-72
2022/10/12 07:11:08;;;;;;;35.17;17.38;;;;;;;4.17;100.00;102387.38;5007505;28;20367;-72
2022/10/12 07:13:34;;;;;;;26.05;16.17;;;;;;;4.14;100.00;102382.13;5011525;28;20400;-71
2022/10/12 07:16:00;;;;;;;33.42;17.60;;;;;;;4.17;100.00;102385.66;5010818;28;20030;-72
2022/10/12 07:18:25;;;;;;;30.65;17.45;;;;;;;4.17;100.00;102377.91;5011383;28;20449;-72
2022/10/12 07:20:51;;;;;;;28.42;16.52;;;;;;;4.15;100.00;102378.72;5012410;28;20073;-72
2022/10/12 07:23:17;;;;;;;35.90;18.85;;;;;;;4.14;100.00;102372.66;5011368;28;20022;-72
2022/10/12 07:25:52;;;;;;;29.98;17.52;;;;;;;4.10;100.00;102375.13;5011937;28;20096;-71
2022/10/12 07:28:19;;;;;;;29.15;17.15;;;;;;;4.09;100.00;102357.91;5011753;28;20033;-72
2022/10/12 07:30:45;;;;;;;39.70;19.63;;;;;;;4.18;100.00;102368.47;5011811;28;20470;-72
2022/10/12 07:33:10;;;;;;;38.78;19.20;;;;;;;4.21;100.00;102373.72;5011494;28;20113;-72
2022/10/12 07:35:36;;;;;;;30.83;19.98;;;;;;;4.30;100.00;102376.56;5010450;28;20221;-72
2022/10/12 07:38:01;;;;;;;38.47;20.02;;;;;;;4.40;100.00;102369.91;5012267;28;20021;-72
2022/10/12 07:40:27;;;;;;;38.05;20.50;;;;;;;4.42;100.00;102368.28;5011732;28;20057;-72
2022/10/12 07:42:53;;;;;;;37.22;20.88;;;;;;;4.44;100.00;102364.88;5010971;28;20073;-72
2022/10/12 07:45:18;;;;;;;37.85;20.95;;;;;;;4.52;100.00;102364.22;5010430;28;20053;-72
2022/10/12 07:47:43;;;;;;;40.25;20.95;;;;;;;4.58;100.00;102375.56;5011323;28;20474;-73
2022/10/12 07:50:09;;;;;;;44.63;22.88;;;;;;;4.63;100.00;102376.56;5010729;28;20565;-72
2022/10/12 07:52:34;;;;;;;39.47;22.02;;;;;;;4.75;100.00;102377.72;5022598;28;20037;-72
2022/10/12 07:55:00;;;;;;;39.35;22.60;;;;;;;4.89;100.00;102374.63;5012405;28;20032;-72
2022/10/12 07:57:25;;;;;;;49.95;24.70;;;;;;;5.02;100.00;102382.69;5010794;28;20080;-72
2022/10/12 07:59:51;;;;;;;40.97;25.50;;;;;;;5.09;100.00;102380.25;5012077;28;20087;-72
2022/10/12 08:02:17;;;;;;;40.17;24.38;;;;;;;5.10;100.00;102370.78;5011895;28;20104;-72
2022/10/12 08:04:42;;;;;;;49.28;24.25;;;;;;;5.16;100.00;102376.09;5010586;28;20422;-72
2022/10/12 08:07:07;;;;;;;44.67;25.58;;;;;;;5.20;100.00;102390.88;5006782;28;20140;-72
2022/10/12 08:09:35;;;;;;;43.63;25.20;;;;;;;5.27;100.00;102386.72;5011062;28;20030;-72
2022/10/12 08:12:00;;;;;;;53.10;29.73;;;;;;;5.37;100.00;102394.72;5011481;28;20105;-71
2022/10/12 08:14:26;;;;;;;54.65;30.17;;;;;;;5.48;100.00;102387.19;5011295;28;20543;-71
2022/10/12 08:16:51;;;;;;;50.05;31.67;;;;;;;5.54;100.00;102376.09;5011844;28;20581;-72
2022/10/12 08:19:17;;;;;;;49.28;31.33;;;;;;;5.68;100.00;102385.03;5010909;28;20034;-71
2022/10/12 08:21:42;;;;;;;58.15;31.27;;;;;;;5.77;100.00;102379.19;5011668;28;20026;-71
2022/10/12 08:24:08;;;;;;;51.45;31.13;;;;;;;5.85;100.00;102378.50;5011076;28;20101;-71
2022/10/12 08:26:34;;;;;;;55.78;29.80;;;;;;;5.94;100.00;102376.97;5010334;28;20026;-72
2022/10/12 08:29:04;;;;;;;51.92;29.05;;;;;;;6.01;100.00;102371.94;5011840;28;20500;-71
2022/10/12 08:31:30;;;;;;;46.95;28.05;;;;;;;6.06;100.00;102366.88;5012773;28;20036;-72
2022/10/12 08:33:59;;;;;;;47.80;28.15;;;;;;;6.26;100.00;102368.13;5015328;28;20108;-73
2022/10/12 08:36:24;;;;;;;51.40;28.33;;;;;;;6.35;100.00;102371.72;5012628;28;20022;-72
2022/10/12 08:38:54;;;;;;;37.35;24.92;;;;;;;6.45;100.00;102363.28;5013484;28;20040;-72
2022/10/12 08:41:22;;;;;;;42.78;27.80;;;;;;;6.64;100.00;102362.75;5002887;28;20077;-72
2022/10/12 08:44:08;;;;;;;40.55;27.02;;;;;;;6.87;100.00;102373.50;5006138;28;20027;-72
2022/10/12 08:46:34;;;;;;;42.78;26.45;;;;;;;7.11;100.00;102361.78;5004029;28;20499;-72
2022/10/12 08:49:05;;;;;;;45.05;27.17;;;;;;;7.32;100.00;102377.63;5014493;28;20026;-73
2022/10/12 08:51:38;;;;;;;38.88;25.17;;;;;;;7.47;100.00;102359.69;5007745;28;20034;-72
2022/10/12 08:54:12;;;;;;;39.72;24.85;;;;;;;7.61;100.00;102359.88;5009864;28;20038;-72
2022/10/12 08:56:40;;;;;;;43.15;24.13;;;;;;;7.70;100.00;102364.31;4996415;28;20068;-73
2022/10/12 08:59:12;;;;;;;39.83;22.23;;;;;;;7.82;100.00;102358.41;5014064;28;20584;-72
2022/10/12 09:02:00;;;;;;;36.83;23.23;;;;;;;7.94;100.00;102362.00;5006550;28;20093;-72
2022/10/12 09:04:51;;;;;;;35.53;22.33;;;;;;;8.14;100.00;102369.16;4962292;28;20048;-72
2022/10/12 09:07:19;;;;;;;35.38;22.35;;;;;;;8.31;100.00;102370.22;5001257;28;20034;-72
2022/10/12 09:10:02;;;;;;;31.10;20.67;;;;;;;8.46;100.00;102373.84;5002515;28;20066;-72
2022/10/12 09:12:50;;;;;;;36.10;20.35;;;;;;;8.53;100.00;102371.31;5002642;28;20500;-73
2022/10/12 09:15:23;;;;;;;35.78;20.95;;;;;;;8.63;100.00;102380.97;4999449;28;20033;-72
2022/10/12 09:17:54;;;;;;;32.70;20.05;;;;;;;8.65;100.00;102375.78;5010617;28;20029;-72
2022/10/12 09:20:25;;;;;;;39.08;21.67;;;;;;;8.78;100.00;102388.03;5007699;28;20402;-72
2022/10/12 09:22:55;;;;;;;36.80;22.23;;;;;;;8.86;100.00;102386.38;5008278;28;20461;-72
2022/10/12 09:25:24;;;;;;;35.63;21.30;;;;;;;8.88;100.00;102375.97;5000453;28;20014;-73
2022/10/12 09:27:50;;;;;;;38.47;20.80;;;;;;;8.98;100.00;102384.72;5006852;28;20061;-72
2022/10/12 09:30:17;;;;;;;35.70;21.20;;;;;;;9.03;100.00;102378.69;5002460;28;20494;-73
2022/10/12 09:33:07;;;;;;;37.83;19.15;;;;;;;9.01;100.00;102370.00;5006269;28;20026;-72
2022/10/12 09:35:34;;;;;;;36.05;19.48;;;;;;;9.08;100.00;102371.78;5001509;28;20030;-72
2022/10/12 09:38:00;;;;;;;32.70;18.80;;;;;;;9.13;100.00;102370.09;5005459;28;20478;-72
2022/10/12 09:40:32;;;;;;;31.60;19.20;;;;;;;9.21;100.00;102377.06;4999194;28;20033;-72
2022/10/12 09:43:00;;;;;;;34.20;20.27;;;;;;;9.25;100.00;102369.28;5009188;28;20029;-73
2022/10/12 09:45:28;;;;;;;39.00;20.35;;;;;;;9.36;100.00;102375.44;5005275;28;20011;-72
2022/10/12 09:48:12;;;;;;;38.47;20.60;;;;;;;9.50;100.00;102377.25;5003805;28;20041;-72
2022/10/12 09:50:51;;;;;;;37.10;19.35;;;;;;;9.53;100.00;102370.31;5006325;28;20090;-73
2022/10/12 09:53:20;;;;;;;32.88;17.67;;;;;;;9.59;100.00;102372.97;5014007;28;20386;-72
2022/10/12 09:56:08;;;;;;;28.42;18.63;;;;;;;9.61;100.00;102359.94;5007660;28;20058;-72
2022/10/12 09:58:52;;;;;;;33.45;17.48;;;;;;;9.64;100.00;102357.34;4994650;28;20101;-73
2022/10/12 10:01:24;;;;;;;31.95;17.00;;;;;;;9.76;100.00;102353.94;5004922;28;20026;-72
2022/10/12 10:04:09;;;;;;;30.08;17.10;;;;;;;9.87;100.00;102346.16;5003592;28;20112;-72
2022/10/12 10:06:38;;;;;;;35.75;17.27;;;;;;;10.06;100.00;102346.22;4996313;28;20053;-72
2022/10/12 10:09:04;;;;;;;29.98;16.52;;;;;;;10.20;98.21;102345.38;4998388;28;20375;-72
2022/10/12 10:11:30;;;;;;;32.42;17.52;;;;;;;10.40;98.95;102330.69;4997789;28;20045;-72
2022/10/12 10:13:58;;;;;;;32.63;16.20;;;;;;;10.54;98.22;102331.56;4999307;28;20026;-72
2022/10/12 10:16:25;;;;;;;32.55;17.13;;;;;;;10.63;93.96;102332.44;5007163;28;20065;-72
2022/10/12 10:18:57;;;;;;;30.15;14.77;;;;;;;10.70;94.48;102331.56;5002339;28;20474;-72
2022/10/12 10:21:30;;;;;;;24.77;13.80;;;;;;;10.83;96.63;102337.66;4998980;28;20030;-73
2022/10/12 10:23:58;;;;;;;27.67;12.40;;;;;;;10.90;93.19;102342.00;5002497;28;20022;-72
2022/10/12 10:26:25;;;;;;;22.75;12.98;;;;;;;10.98;95.54;102328.03;5008222;28;20033;-72
2022/10/12 10:29:15;;;;;;;26.17;12.35;;;;;;;11.10;96.13;102340.22;5008093;28;20030;-72
2022/10/12 10:31:41;;;;;;;19.80;10.45;;;;;;;11.23;91.69;102344.53;5000785;28;20042;-72
2022/10/12 10:34:06;;;;;;;19.50;10.23;;;;;;;11.27;91.34;102337.56;5003442;28;20089;-72
2022/10/12 10:36:37;;;;;;;16.83;9.47;;;;;;;11.36;88.31;102337.56;5012096;28;20026;-73
2022/10/12 10:39:14;;;;;;;19.00;9.35;;;;;;;11.48;91.97;102337.53;5002716;28;20788;-72
2022/10/12 10:41:41;;;;;;;16.98;8.93;;;;;;;11.65;90.85;102332.22;4995094;28;20022;-73
2022/10/12 10:44:31;;;;;;;19.40;9.70;;;;;;;11.76;92.03;102321.72;5002904;28;20025;-72
2022/10/12 10:47:06;;;;;;;18.75;9.23;;;;;;;11.98;85.91;102319.03;5000958;28;20547;-72
2022/10/12 10:49:39;;;;;;;18.25;8.88;;;;;;;11.98;84.32;102317.28;5003622;28;20395;-72
2022/10/12 10:52:16;;;;;;;17.02;9.57;;;;;;;11.95;84.67;102317.31;5001745;28;20066;-72
2022/10/12 10:54:42;;;;;;;13.98;8.20;;;;;;;12.04;85.60;102322.50;5010758;28;20059;-73
2022/10/12 10:57:19;;;;;;;16.33;8.63;;;;;;;12.20;83.24;102318.03;5013069;28;20465;-72
2022/10/12 10:59:59;;;;;;;20.17;8.65;;;;;;;12.34;85.58;102297.88;5011783;28;20033;-73
2022/10/12 11:02:33;;;;;;;15.55;8.30;;;;;;;12.58;83.82;102309.00;5012198;28;20033;-72
2022/10/12 11:05:09;;;;;;;23.63;9.60;;;;;;;12.77;85.24;102301.88;5011994;28;20135;-73
2022/10/12 11:07:48;;;;;;;22.17;7.93;;;;;;;13.08;77.96;102295.47;5011421;28;20026;-73
2022/10/12 11:10:37;;;;;;;14.77;7.85;;;;;;;13.43;82.02;102294.19;5000636;28;20185;-72
2022/10/12 11:13:12;;;;;;;16.13;8.18;;;;;;;13.70;79.20;102287.75;5013715;28;20029;-72
2022/10/12 11:16:23;;;;;;;16.50;7.57;;;;;;;13.85;79.42;102281.44;5010746;28;20030;-72
2022/10/12 11:18:54;;;;;;;18.23;7.10;;;;;;;14.09;73.03;102285.44;5010168;28;20478;-72
2022/10/12 11:21:25;;;;;;;14.52;6.13;;;;;;;14.04;73.44;102263.69;5008701;28;20026;-73